Time;durP1;ratioP1;P1;durP2;ratioP2;P2;SDS_P1;SDS_P2;PMS_P1;PMS_P2;Temp;Humidity;BMP_temperature;BMP_pressure;BME280_temperature;BME280_humidity;BME280_pressure;Samples;Min_cycle;Max_cycle;Signal;HPM_P1;HPM_P2
2023/10/22 00:02:13;;;;;;;0.20;0.20;;;;;;;18.09;100.00;99654.97;4995564;28;20040;-88
2023/10/22 00:04:39;;;;;;;0.20;0.20;;;;;;;18.01;100.00;99634.59;4994607;28;20022;-88
2023/10/22 00:07:05;;;;;;;0.20;0.20;;;;;;;18.00;100.00;99633.00;4995180;28;20022;-87
2023/10/22 00:09:30;;;;;;;0.20;0.20;;;;;;;18.03;100.00;99640.59;4971695;28;20112;-87
2023/10/22 00:11:56;;;;;;;0.20;0.20;;;;;;;18.12;100.00;99654.94;4984154;28;20109;-87
2023/10/22 00:14:21;;;;;;;0.20;0.20;;;;;;;17.88;100.00;99636.41;4996547;28;20458;-87
2023/10/22 00:16:47;;;;;;;0.20;0.20;;;;;;;17.82;100.00;99633.28;4997593;28;20497;-87
2023/10/22 00:19:12;;;;;;;0.20;0.20;;;;;;;18.04;100.00;99647.81;5014071;28;20521;-88
2023/10/22 00:21:38;;;;;;;0.20;0.20;;;;;;;17.90;100.00;99642.44;5008177;28;20030;-88
2023/10/22 00:24:03;;;;;;;0.20;0.20;;;;;;;17.94;100.00;99676.91;4997460;28;20036;-87
2023/10/22 00:26:29;;;;;;;0.20;0.20;;;;;;;17.98;100.00;99667.19;4998817;28;20362;-88
2023/10/22 00:28:54;;;;;;;0.20;0.20;;;;;;;18.04;100.00;99676.75;4998236;28;20029;-87
2023/10/22 00:31:20;;;;;;;0.20;0.20;;;;;;;18.13;100.00;99679.03;4997205;28;20076;-87
2023/10/22 00:33:45;;;;;;;0.20;0.20;;;;;;;17.97;100.00;99656.38;4997729;28;20014;-88
2023/10/22 00:36:11;;;;;;;0.20;0.20;;;;;;;18.05;100.00;99688.81;5018642;28;20028;-87
2023/10/22 00:38:37;;;;;;;0.20;0.20;;;;;;;17.98;100.00;99686.91;4997942;28;20034;-88
2023/10/22 00:41:02;;;;;;;0.20;0.20;;;;;;;17.94;100.00;99688.19;4997772;28;20521;-87
2023/10/22 00:43:28;;;;;;;0.20;0.20;;;;;;;17.71;100.00;99646.69;4996997;28;20098;-88
2023/10/22 00:45:54;;;;;;;0.20;0.20;;;;;;;17.86;100.00;99658.56;4991099;28;20069;-89
2023/10/22 00:48:21;;;;;;;0.20;0.20;;;;;;;17.91;100.00;99667.31;4991172;28;20053;-88
2023/10/22 00:50:47;;;;;;;0.20;0.20;;;;;;;18.05;100.00;99671.91;5013972;28;20111;-88
2023/10/22 00:53:15;;;;;;;0.20;0.20;;;;;;;17.95;100.00;99675.69;4995885;28;20659;-89
2023/10/22 00:55:43;;;;;;;0.20;0.20;;;;;;;17.97;100.00;99692.97;5013660;28;20109;-88
2023/10/22 00:58:08;;;;;;;0.25;0.25;;;;;;;17.96;100.00;99692.19;4994967;28;20022;-89
2023/10/22 01:00:35;;;;;;;0.20;0.20;;;;;;;17.97;100.00;99692.97;4989324;28;20015;-89
2023/10/22 01:03:01;;;;;;;0.20;0.20;;;;;;;18.05;100.00;99686.00;4995008;28;20474;-89
2023/10/22 01:05:31;;;;;;;0.20;0.20;;;;;;;17.94;100.00;99665.66;4994745;28;20022;-88
2023/10/22 01:07:57;;;;;;;0.20;0.20;;;;;;;17.95;100.00;99684.97;4993518;28;20401;-88
2023/10/22 01:10:23;;;;;;;0.20;0.20;;;;;;;17.90;100.00;99684.66;4996769;28;20095;-89
2023/10/22 01:12:49;;;;;;;0.20;0.20;;;;;;;17.88;100.00;99678.63;5009956;28;20111;-89
2023/10/22 01:15:14;;;;;;;0.20;0.20;;;;;;;17.79;100.00;99665.91;5007416;28;20612;-89
2023/10/22 01:17:39;;;;;;;0.20;0.20;;;;;;;17.80;100.00;99661.84;4996383;28;20025;-88
2023/10/22 01:20:06;;;;;;;0.20;0.20;;;;;;;17.70;100.00;99648.72;5013554;28;20033;-89
2023/10/22 01:22:34;;;;;;;0.20;0.20;;;;;;;17.84;100.00;99681.47;4996391;28;20060;-89
2023/10/22 01:25:00;;;;;;;0.20;0.20;;;;;;;17.67;100.00;99669.22;4988189;28;20021;-89
2023/10/22 01:27:26;;;;;;;0.20;0.20;;;;;;;17.79;100.00;99668.72;4996264;28;20030;-90
2023/10/22 01:29:51;;;;;;;0.20;0.20;;;;;;;17.69;100.00;99658.38;4994473;28;20485;-89
2023/10/22 01:32:17;;;;;;;0.20;0.20;;;;;;;17.76;100.00;99672.34;4994009;28;20029;-89
2023/10/22 01:34:42;;;;;;;0.20;0.20;;;;;;;17.90;100.00;99665.72;4996393;28;20498;-89
2023/10/22 01:37:08;;;;;;;0.20;0.20;;;;;;;17.69;100.00;99646.31;4990987;28;20087;-88
2023/10/22 01:39:33;;;;;;;0.20;0.20;;;;;;;17.90;100.00;99668.56;4995721;28;20034;-88
2023/10/22 01:41:58;;;;;;;0.20;0.20;;;;;;;17.75;100.00;99662.34;5008205;28;20037;-90
2023/10/22 01:44:24;;;;;;;0.20;0.20;;;;;;;17.75;100.00;99667.97;4990678;28;20030;-88
2023/10/22 01:46:50;;;;;;;0.20;0.20;;;;;;;17.85;100.00;99651.34;4990020;28;20129;-89
2023/10/22 01:49:15;;;;;;;0.20;0.20;;;;;;;17.83;100.00;99670.66;5013469;28;20485;-88
2023/10/22 01:51:41;;;;;;;0.20;0.20;;;;;;;17.80;100.00;99664.66;5013490;28;20026;-88
2023/10/22 01:57:28;;;;;;;0.20;0.20;;;;;;;17.66;100.00;99667.66;5003168;28;20040;-88
2023/10/22 01:59:53;;;;;;;0.20;0.20;;;;;;;17.75;100.00;99675.59;4996282;28;20030;-89
2023/10/22 02:02:19;;;;;;;0.20;0.20;;;;;;;17.66;100.00;99676.09;4995902;28;20022;-88
2023/10/22 02:04:44;;;;;;;0.20;0.20;;;;;;;17.61;100.00;99673.75;5006284;28;20606;-89
2023/10/22 02:07:10;;;;;;;0.20;0.20;;;;;;;17.52;100.00;99662.22;4995326;28;20390;-88
2023/10/22 02:12:58;;;;;;;0.20;0.20;;;;;;;17.53;100.00;99680.69;5005465;28;20049;-89
2023/10/22 02:18:45;;;;;;;0.20;0.20;;;;;;;17.57;100.00;99673.00;5002252;28;20045;-89
2023/10/22 02:21:11;;;;;;;0.20;0.20;;;;;;;17.41;100.00;99670.00;4984466;28;20065;-89
2023/10/22 02:23:39;;;;;;;0.20;0.20;;;;;;;17.48;100.00;99686.78;4984601;28;20029;-88
2023/10/22 03:13:10;;;;;;;0.20;0.20;;;;;;;17.40;100.00;99719.03;4730483;28;20093;-89
2023/10/22 03:15:35;;;;;;;0.20;0.20;;;;;;;17.48;100.00;99737.41;5003941;28;20034;-89
2023/10/22 03:18:01;;;;;;;0.20;0.20;;;;;;;17.14;100.00;99693.22;4988765;28;20027;-90
2023/10/22 03:20:30;;;;;;;0.20;0.20;;;;;;;17.41;100.00;99745.91;5012837;28;20049;-89
2023/10/22 03:22:55;;;;;;;0.20;0.20;;;;;;;17.38;100.00;99743.97;4995769;28;20484;-90
2023/10/22 03:25:24;;;;;;;0.20;0.20;;;;;;;17.31;100.00;99750.47;5012588;28;20101;-89
2023/10/22 03:27:49;;;;;;;0.20;0.20;;;;;;;17.27;100.00;99739.25;4993815;28;20129;-91
2023/10/22 03:30:15;;;;;;;0.20;0.20;;;;;;;17.34;100.00;99746.81;4995704;28;20598;-89
2023/10/22 03:32:40;;;;;;;0.20;0.20;;;;;;;17.07;100.00;99712.19;4998699;28;20022;-90
2023/10/22 03:35:06;;;;;;;0.20;0.20;;;;;;;17.27;100.00;99749.72;4998976;28;20018;-90
2023/10/22 03:37:32;;;;;;;0.20;0.20;;;;;;;17.32;100.00;99749.25;4998663;28;20030;-90
2023/10/22 03:39:57;;;;;;;0.20;0.20;;;;;;;17.35;100.00;99756.03;5016932;28;20057;-90
2023/10/22 03:42:23;;;;;;;0.20;0.20;;;;;;;17.28;100.00;99765.38;4999322;28;20026;-89
2023/10/22 03:44:48;;;;;;;0.20;0.20;;;;;;;17.29;100.00;99750.88;5018020;28;20469;-88
2023/10/22 03:47:14;;;;;;;0.20;0.20;;;;;;;17.24;100.00;99759.78;5000051;28;20022;-90
2023/10/22 03:49:39;;;;;;;0.20;0.20;;;;;;;16.82;100.00;99687.16;5025305;28;20072;-89
2023/10/22 03:52:05;;;;;;;0.20;0.20;;;;;;;17.31;100.00;99749.66;5009247;28;20108;-90
2023/10/22 03:54:31;;;;;;;0.20;0.20;;;;;;;17.09;100.00;99740.66;5009170;28;20018;-88
2023/10/22 03:56:56;;;;;;;0.20;0.20;;;;;;;17.16;100.00;99747.03;5019562;28;20033;-89
2023/10/22 03:59:22;;;;;;;0.20;0.20;;;;;;;17.03;100.00;99743.94;4999273;28;20458;-89
2023/10/22 04:01:47;;;;;;;0.20;0.20;;;;;;;17.17;100.00;99759.84;5016655;28;20037;-90
2023/10/22 04:04:13;;;;;;;0.20;0.20;;;;;;;17.17;100.00;99754.22;5016328;28;20038;-89
2023/10/22 04:06:38;;;;;;;0.20;0.20;;;;;;;17.09;100.00;99747.06;4997227;28;20112;-89
2023/10/22 04:09:03;;;;;;;0.20;0.20;;;;;;;17.32;100.00;99779.41;4998437;28;20026;-89
2023/10/22 04:11:29;;;;;;;0.20;0.20;;;;;;;17.09;100.00;99755.50;4997667;28;20501;-89
2023/10/22 04:13:54;;;;;;;0.20;0.20;;;;;;;17.03;100.00;99760.00;4996680;28;20077;-89
2023/10/22 04:16:20;;;;;;;0.20;0.20;;;;;;;17.08;100.00;99767.97;5003044;28;20033;-89
2023/10/22 04:18:45;;;;;;;0.20;0.20;;;;;;;17.02;100.00;99769.66;4998586;28;20045;-89
2023/10/22 04:21:17;;;;;;;0.20;0.20;;;;;;;17.19;100.00;99774.28;4998820;28;20480;-90
2023/10/22 04:23:43;;;;;;;0.20;0.20;;;;;;;17.40;100.00;99794.94;5010373;28;20159;-89
2023/10/22 04:26:12;;;;;;;0.20;0.20;;;;;;;17.38;100.00;99792.56;5015504;28;20065;-88
2023/10/22 04:28:46;;;;;;;0.20;0.20;;;;;;;17.33;100.00;99797.84;4998095;28;20029;-88
2023/10/22 04:31:11;;;;;;;;;;;;;;;17.43;100.00;99805.38;4996050;28;20119;-89
2023/10/22 04:33:37;;;;;;;0.20;0.20;;;;;;;17.40;100.00;99794.94;4998105;28;20384;-89
2023/10/22 04:36:03;;;;;;;0.20;0.20;;;;;;;17.51;100.00;99795.63;5014908;28;20030;-90
2023/10/22 04:38:30;;;;;;;0.20;0.20;;;;;;;17.40;100.00;99801.38;5010280;28;20023;-89
2023/10/22 04:40:56;;;;;;;0.20;0.20;;;;;;;17.24;100.00;99795.53;4997049;28;20018;-89
2023/10/22 04:43:21;;;;;;;0.20;0.20;;;;;;;17.16;100.00;99794.81;5014851;28;20544;-88
2023/10/22 04:45:50;;;;;;;0.20;0.20;;;;;;;17.21;100.00;99794.34;4996308;28;20034;-89
2023/10/22 04:48:16;;;;;;;0.20;0.20;;;;;;;17.23;100.00;99813.63;4995957;28;20464;-88
2023/10/22 04:50:42;;;;;;;0.20;0.20;;;;;;;17.14;100.00;99816.91;4996597;28;20025;-87
2023/10/22 04:53:08;;;;;;;0.20;0.20;;;;;;;17.02;100.00;99814.63;4995595;28;20026;-88
2023/10/22 04:55:34;;;;;;;0.20;0.20;;;;;;;17.03;100.00;99808.56;4996113;28;20041;-88
2023/10/22 04:58:00;;;;;;;0.20;0.20;;;;;;;17.20;100.00;99808.81;4996115;28;20033;-88
2023/10/22 05:00:26;;;;;;;0.20;0.20;;;;;;;17.29;100.00;99801.50;4995849;28;20088;-88
2023/10/22 05:02:51;;;;;;;0.20;0.20;;;;;;;17.13;100.00;99801.25;4996536;28;20026;-88
2023/10/22 05:05:17;;;;;;;0.20;0.20;;;;;;;17.18;100.00;99806.44;4997131;28;20486;-88
2023/10/22 05:07:42;;;;;;;0.20;0.20;;;;;;;17.22;100.00;99817.66;5014382;28;20038;-87
2023/10/22 05:10:08;;;;;;;0.20;0.20;;;;;;;17.18;100.00;99820.47;4996592;28;20386;-86
2023/10/22 05:12:34;;;;;;;0.20;0.20;;;;;;;17.25;100.00;99823.22;4982310;28;20059;-87
2023/10/22 05:14:59;;;;;;;0.20;0.20;;;;;;;17.20;100.00;99820.84;4994544;28;20034;-88
2023/10/22 05:17:25;;;;;;;0.20;0.20;;;;;;;17.07;100.00;99804.94;4985743;28;20131;-88
2023/10/22 05:19:50;;;;;;;0.20;0.20;;;;;;;17.48;100.00;99845.09;4994260;28;20084;-91
2023/10/22 05:22:17;;;;;;;0.20;0.20;;;;;;;17.37;100.00;99843.63;4996332;28;20022;-91
2023/10/22 05:24:52;;;;;;;0.20;0.20;;;;;;;17.42;100.00;99849.56;4996241;28;20038;-91
2023/10/22 05:27:17;;;;;;;0.20;0.20;;;;;;;17.50;100.00;99839.03;4992739;28;20018;-90
2023/10/22 05:29:53;;;;;;;0.20;0.20;;;;;;;17.65;100.00;99857.34;4997732;28;20034;-88
2023/10/22 05:32:21;;;;;;;0.20;0.20;;;;;;;17.71;100.00;99864.13;4993793;28;20137;-89
2023/10/22 05:34:46;;;;;;;0.20;0.20;;;;;;;17.77;100.00;99865.28;4994705;28;20038;-89
2023/10/22 05:37:12;;;;;;;0.20;0.20;;;;;;;17.87;100.00;99869.19;4993765;28;20034;-90
2023/10/22 05:39:37;;;;;;;0.20;0.20;;;;;;;17.88;100.00;99855.91;4999421;28;20084;-88
2023/10/22 05:42:06;;;;;;;0.20;0.20;;;;;;;18.37;100.00;99879.00;5006124;28;20477;-89
2023/10/22 05:44:33;;;;;;;0.20;0.20;;;;;;;18.29;100.00;99878.31;4996799;28;20482;-90
2023/10/22 05:46:58;;;;;;;0.20;0.20;;;;;;;18.98;100.00;99895.88;4986487;28;20173;-89
2023/10/22 05:49:24;;;;;;;0.20;0.20;;;;;;;19.09;100.00;99904.94;4976759;28;20042;-90
2023/10/22 05:51:50;;;;;;;0.20;0.20;;;;;;;18.80;100.00;99882.03;4996588;28;20084;-90
2023/10/22 05:54:17;;;;;;;0.20;0.20;;;;;;;18.89;100.00;99889.97;4976962;28;20022;-88
2023/10/22 05:56:42;;;;;;;0.20;0.20;;;;;;;19.49;100.00;99903.03;4962235;28;20023;-88
2023/10/22 05:59:09;;;;;;;0.20;0.20;;;;;;;19.21;100.00;99886.63;4976883;28;20033;-86
2023/10/22 06:01:38;;;;;;;0.20;0.20;;;;;;;19.48;100.00;99911.94;4976936;28;20057;-89
2023/10/22 06:04:06;;;;;;;0.20;0.20;;;;;;;19.25;100.00;99922.00;4961436;28;20053;-89
2023/10/22 06:06:31;;;;;;;0.20;0.20;;;;;;;19.22;100.00;99925.66;4993952;28;20080;-88
2023/10/22 06:08:57;;;;;;;0.20;0.20;;;;;;;19.06;100.00;99925.53;4979288;28;20026;-89
2023/10/22 06:11:22;;;;;;;0.20;0.20;;;;;;;19.00;100.00;99910.31;4978786;28;20089;-88
2023/10/22 06:13:48;;;;;;;0.20;0.20;;;;;;;19.03;100.00;99910.28;5010392;28;20523;-87
2023/10/22 06:16:13;;;;;;;0.20;0.20;;;;;;;18.97;100.00;99912.00;5011913;28;20034;-87
2023/10/22 06:18:39;;;;;;;0.20;0.20;;;;;;;19.00;100.00;99911.13;5014127;28;20424;-88
2023/10/22 06:21:14;;;;;;;0.20;0.20;;;;;;;19.02;100.00;99919.16;5001489;28;20501;-89
2023/10/22 06:23:40;;;;;;;0.20;0.20;;;;;;;19.10;100.00;99915.78;4999240;28;20034;-88
2023/10/22 06:26:08;;;;;;;0.20;0.20;;;;;;;20.35;100.00;99924.00;5011560;28;20084;-87
2023/10/22 06:28:34;;;;;;;0.20;0.20;;;;;;;20.95;100.00;99921.88;5011441;28;20126;-87
2023/10/22 06:31:11;;;;;;;0.20;0.20;;;;;;;21.87;100.00;99949.09;5007900;28;20561;-88
2023/10/22 06:33:37;;;;;;;0.20;0.20;;;;;;;22.66;100.00;99947.66;5012989;28;20026;-87
2023/10/22 06:36:15;;;;;;;0.20;0.20;;;;;;;23.36;95.98;99960.88;5011438;28;20022;-87
2023/10/22 06:38:41;;;;;;;0.20;0.20;;;;;;;24.11;91.18;99966.03;5002193;28;20042;-86
2023/10/22 06:41:18;;;;;;;0.20;0.20;;;;;;;24.32;88.54;99970.94;4996101;28;20040;-87
2023/10/22 06:43:44;;;;;;;0.20;0.20;;;;;;;24.81;83.53;99968.28;5010185;28;20057;-90
2023/10/22 06:46:10;;;;;;;0.20;0.20;;;;;;;24.73;76.49;99971.88;5011271;28;20718;-87
2023/10/22 06:48:36;;;;;;;0.20;0.20;;;;;;;24.05;78.41;99946.72;4993473;28;20552;-87
2023/10/22 06:51:03;;;;;;;0.20;0.20;;;;;;;24.01;78.44;99974.47;4994008;28;20022;-86
2023/10/22 06:53:30;;;;;;;0.20;0.20;;;;;;;22.82;87.90;99961.75;5011621;28;20022;-87
2023/10/22 06:55:55;;;;;;;0.20;0.20;;;;;;;22.86;86.96;99958.81;4994403;28;20053;-87
2023/10/22 06:58:20;;;;;;;0.20;0.20;;;;;;;23.83;82.50;99980.00;5012519;28;20076;-86
2023/10/22 07:00:46;;;;;;;0.20;0.20;;;;;;;24.45;76.87;99948.97;4993133;28;20377;-85
2023/10/22 07:03:11;;;;;;;0.20;0.20;;;;;;;24.00;78.48;99967.22;5011683;28;20363;-86
2023/10/22 07:05:36;;;;;;;0.20;0.20;;;;;;;24.51;77.23;99978.38;5013408;28;20026;-85
2023/10/22 07:08:02;;;;;;;0.20;0.20;;;;;;;24.97;74.21;99981.47;5004466;28;20112;-85
2023/10/22 07:10:27;;;;;;;0.20;0.20;;;;;;;25.48;70.30;99978.25;5002859;28;20030;-85
2023/10/22 07:12:57;;;;;;;0.17;0.17;;;;;;;26.24;66.31;99998.63;5026248;28;20624;-87
2023/10/22 07:15:24;;;;;;;0.20;0.20;;;;;;;25.53;68.17;99991.88;5019815;28;20018;-86
2023/10/22 07:17:50;;;;;;;0.20;0.20;;;;;;;25.89;66.55;100000.97;5029116;28;20462;-85
2023/10/22 07:20:16;;;;;;;0.20;0.20;;;;;;;25.23;70.01;99992.69;5019347;28;20037;-86
2023/10/22 07:22:41;;;;;;;0.20;0.20;;;;;;;25.08;72.41;99976.19;4996085;28;20058;-86
2023/10/22 07:25:07;;;;;;;0.20;0.20;;;;;;;25.89;68.21;100010.34;5014600;28;20100;-86
2023/10/22 07:27:32;;;;;;;0.20;0.20;;;;;;;25.95;68.89;100013.34;5014532;28;20070;-86
2023/10/22 07:29:57;;;;;;;0.20;0.20;;;;;;;26.46;64.39;100010.69;4997786;28;20026;-86
2023/10/22 07:32:23;;;;;;;0.20;0.20;;;;;;;25.79;66.01;100017.28;4997875;28;20053;-86
2023/10/22 07:34:48;;;;;;;0.20;0.20;;;;;;;26.41;66.52;100014.16;5015367;28;20029;-86
2023/10/22 07:37:15;;;;;;;0.10;0.10;;;;;;;27.06;60.87;100018.50;4996391;28;20583;-86
2023/10/22 07:39:40;;;;;;;0.20;0.20;;;;;;;26.47;64.41;100015.13;4995699;28;20022;-85
2023/10/22 07:42:06;;;;;;;0.10;0.10;;;;;;;26.98;62.06;100007.91;4995539;28;20050;-86
2023/10/22 07:44:31;;;;;;;0.20;0.20;;;;;;;26.59;62.26;99996.28;4995939;28;20026;-86
2023/10/22 07:46:57;;;;;;;0.20;0.20;;;;;;;27.09;61.48;100020.41;4995654;28;20073;-88
2023/10/22 07:49:22;;;;;;;0.10;0.10;;;;;;;26.76;59.79;100022.38;4995797;28;20037;-86
2023/10/22 07:51:47;;;;;;;0.13;0.13;;;;;;;26.93;60.14;100003.63;4996366;28;20033;-86
2023/10/22 07:54:13;;;;;;;0.10;0.10;;;;;;;26.85;62.33;100011.75;4995961;28;20018;-86
2023/10/22 07:56:38;;;;;;;0.10;0.10;;;;;;;26.79;60.71;100029.97;4996543;28;20024;-86
2023/10/22 07:59:04;;;;;;;0.20;0.20;;;;;;;26.79;59.27;100007.97;4996937;28;20018;-86
2023/10/22 08:01:29;;;;;;;0.10;0.10;;;;;;;25.95;60.12;100016.22;4996505;28;20052;-86
2023/10/22 08:03:55;;;;;;;0.20;0.20;;;;;;;25.93;62.85;100016.66;5009682;28;20022;-86
2023/10/22 08:06:20;;;;;;;0.10;0.10;;;;;;;26.11;60.41;100008.13;4977407;28;20022;-87
2023/10/22 08:08:45;;;;;;;0.20;0.20;;;;;;;26.45;61.35;100016.88;4994552;28;20441;-86
2023/10/22 08:11:11;;;;;;;0.10;0.10;;;;;;;26.91;59.44;100017.59;4994023;28;20037;-86
2023/10/22 08:13:36;;;;;;;0.15;0.15;;;;;;;26.51;57.07;100021.47;4960284;28;20047;-86
2023/10/22 08:16:05;;;;;;;0.20;0.20;;;;;;;26.86;56.28;100030.47;4973775;28;20054;-87
2023/10/22 08:18:31;;;;;;;0.10;0.10;;;;;;;26.54;59.01;100026.22;4958022;28;20177;-86
2023/10/22 08:21:04;;;;;;;0.10;0.10;;;;;;;27.23;57.68;100035.31;4959780;28;20074;-85
2023/10/22 08:23:30;;;;;;;0.10;0.10;;;;;;;27.67;55.03;100036.34;4968429;28;20026;-86
2023/10/22 08:25:57;;;;;;;0.10;0.10;;;;;;;26.43;57.16;100014.50;4988295;28;20209;-86
2023/10/22 08:28:22;;;;;;;0.20;0.20;;;;;;;27.08;55.73;100024.56;4994613;28;20037;-87
2023/10/22 08:30:48;;;;;;;0.20;0.20;;;;;;;26.93;57.34;100025.69;4976130;28;20026;-86
2023/10/22 08:33:14;;;;;;;0.20;0.20;;;;;;;25.80;59.89;100033.13;4977001;28;20031;-87
2023/10/22 08:35:40;;;;;;;0.10;0.10;;;;;;;26.57;57.40;100036.66;4976472;28;20124;-86
2023/10/22 08:38:06;;;;;;;0.20;0.20;;;;;;;26.17;56.47;100030.31;4994011;28;20031;-86
2023/10/22 08:40:36;;;;;;;0.15;0.15;;;;;;;27.00;54.92;100020.41;4976297;28;20031;-86
2023/10/22 08:43:05;;;;;;;0.10;0.10;;;;;;;27.47;54.33;100007.56;4976361;28;20030;-86
2023/10/22 08:45:31;;;;;;;0.10;0.10;;;;;;;25.68;56.66;100031.16;4975603;28;20482;-86
2023/10/22 08:48:01;;;;;;;0.10;0.10;;;;;;;26.76;53.12;100013.84;4993731;28;20041;-87
2023/10/22 08:50:28;;;;;;;0.15;0.15;;;;;;;26.77;52.12;100029.69;4976017;28;20052;-87
2023/10/22 08:52:53;;;;;;;0.20;0.20;;;;;;;26.47;53.73;100029.38;4976417;28;20023;-87
2023/10/22 08:55:19;;;;;;;0.10;0.10;;;;;;;26.19;53.63;100004.97;4975637;28;20033;-86
2023/10/22 08:57:45;;;;;;;0.20;0.20;;;;;;;26.39;51.96;100020.34;4993028;28;20478;-86
2023/10/22 09:00:13;;;;;;;0.20;0.20;;;;;;;26.26;53.92;100013.19;4975656;28;20030;-86
2023/10/22 09:02:42;;;;;;;0.20;0.20;;;;;;;26.48;53.19;100013.88;4975262;28;20030;-86
2023/10/22 09:05:07;;;;;;;0.20;0.20;;;;;;;26.43;52.80;100010.88;4992520;28;20127;-85
2023/10/22 09:07:53;;;;;;;0.10;0.10;;;;;;;26.81;52.76;100025.38;4975733;28;20065;-85
2023/10/22 09:10:28;;;;;;;0.10;0.10;;;;;;;26.68;51.02;100030.47;4975144;28;20027;-87
2023/10/22 09:12:54;;;;;;;0.10;0.10;;;;;;;27.54;49.44;100023.56;5003271;28;20053;-86
2023/10/22 09:15:19;;;;;;;0.13;0.13;;;;;;;26.45;50.76;100017.66;5012432;28;20589;-85
2023/10/22 09:17:45;;;;;;;0.10;0.10;;;;;;;26.48;50.98;100024.50;4994728;28;20022;-86
2023/10/22 09:20:21;;;;;;;0.10;0.10;;;;;;;26.71;50.33;100035.25;4994866;28;20030;-85
2023/10/22 09:22:47;;;;;;;0.10;0.10;;;;;;;26.97;49.32;100038.53;4994595;28;20596;-85
2023/10/22 09:25:14;;;;;;;0.10;0.10;;;;;;;26.56;50.23;100026.53;5012022;28;20021;-85
2023/10/22 09:27:40;;;;;;;0.20;0.20;;;;;;;26.97;47.71;100029.94;5012172;28;20409;-85
2023/10/22 09:30:06;;;;;;;0.15;0.15;;;;;;;26.55;48.77;100016.38;4984686;28;20026;-85
2023/10/22 09:32:32;;;;;;;0.20;0.20;;;;;;;26.41;47.71;100045.53;4973370;28;20042;-85
2023/10/22 09:35:18;;;;;;;0.10;0.10;;;;;;;27.02;47.14;100037.88;4973307;28;20529;-85
2023/10/22 09:37:50;;;;;;;0.20;0.20;;;;;;;26.43;48.01;100020.22;4991454;28;20042;-85
2023/10/22 09:40:22;;;;;;;0.10;0.10;;;;;;;26.99;46.78;100035.97;4974879;28;20031;-85
2023/10/22 09:42:49;;;;;;;0.20;0.20;;;;;;;27.40;45.34;100013.66;4975276;28;20386;-86
2023/10/22 09:45:14;;;;;;;0.10;0.10;;;;;;;27.43;45.17;100026.94;4992155;28;20067;-85
2023/10/22 09:47:40;;;;;;;0.10;0.10;;;;;;;28.13;43.69;100029.59;4990447;28;20038;-85
2023/10/22 09:50:12;;;;;;;0.10;0.10;;;;;;;27.56;43.87;100006.75;4974771;28;20058;-85
2023/10/22 09:52:42;;;;;;;0.20;0.20;;;;;;;27.21;42.79;100017.84;4974905;28;20446;-85
2023/10/22 09:55:14;;;;;;;0.20;0.20;;;;;;;27.78;42.51;99990.13;4992046;28;20479;-85
2023/10/22 09:57:40;;;;;;;0.20;0.20;;;;;;;27.99;42.59;100021.75;4974049;28;20529;-85
2023/10/22 10:00:12;;;;;;;0.10;0.10;;;;;;;27.96;43.26;100029.22;4990907;28;20122;-85
2023/10/22 10:02:42;;;;;;;0.20;0.20;;;;;;;28.29;42.85;100016.94;4997384;28;20034;-86
2023/10/22 10:05:13;;;;;;;0.10;0.10;;;;;;;28.79;41.24;100029.34;4991258;28;20026;-85
2023/10/22 10:07:39;;;;;;;0.20;0.20;;;;;;;27.93;42.50;100038.78;4981001;28;20027;-86
2023/10/22 10:10:05;;;;;;;0.10;0.10;;;;;;;28.58;40.90;100039.09;4980103;28;20202;-86
2023/10/22 10:12:34;;;;;;;0.10;0.10;;;;;;;28.30;41.54;100015.63;5000095;28;20126;-86
2023/10/22 10:15:00;;;;;;;0.17;0.17;;;;;;;29.14;39.54;100028.69;5011928;28;20499;-86
2023/10/22 10:17:25;;;;;;;0.10;0.10;;;;;;;29.42;39.39;100011.94;5019404;28;20116;-86
2023/10/22 10:19:51;;;;;;;0.10;0.10;;;;;;;29.67;38.25;100027.72;5009868;28;20555;-86
2023/10/22 10:22:36;;;;;;;0.10;0.10;;;;;;;29.30;38.50;100027.41;5011680;28;20090;-85
2023/10/22 10:25:25;;;;;;;0.10;0.10;;;;;;;28.55;41.00;100031.47;5010531;28;20042;-86
2023/10/22 10:27:52;;;;;;;0.13;0.13;;;;;;;28.61;41.44;100016.03;5007089;28;20497;-85
2023/10/22 10:30:20;;;;;;;0.10;0.10;;;;;;;28.50;41.67;100030.13;5020945;28;20116;-86
2023/10/22 10:32:48;;;;;;;0.10;0.10;;;;;;;29.17;41.73;100021.97;5009916;28;20026;-86
2023/10/22 10:35:14;;;;;;;0.10;0.10;;;;;;;28.39;43.02;100021.28;5011226;28;20051;-86
2023/10/22 10:37:39;;;;;;;0.10;0.10;;;;;;;28.10;43.35;99997.03;5021181;28;20097;-86
2023/10/22 10:40:06;;;;;;;0.10;0.10;;;;;;;27.83;44.50;100003.75;5010163;28;20025;-86
2023/10/22 10:42:32;;;;;;;0.10;0.10;;;;;;;27.68;44.80;100017.94;5004714;28;20026;-85
2023/10/22 10:44:58;;;;;;;0.10;0.10;;;;;;;28.48;43.50;100018.34;5020498;28;20033;-85
2023/10/22 10:47:30;;;;;;;0.10;0.10;;;;;;;28.46;42.88;100023.78;5020512;28;20032;-86
2023/10/22 10:50:11;;;;;;;;;;;;;;;29.06;42.33;100016.84;5010315;28;20084;-85
2023/10/22 10:52:43;;;;;;;0.20;0.20;;;;;;;28.91;42.25;100021.75;5009934;28;19920;-86
2023/10/22 10:55:15;;;;;;;0.10;0.10;;;;;;;29.36;41.38;100016.81;5011114;28;20411;-85
2023/10/22 10:57:51;;;;;;;0.10;0.10;;;;;;;29.11;42.10;100019.00;5009735;28;20034;-85
2023/10/22 11:00:32;;;;;;;0.20;0.20;;;;;;;28.68;43.56;100021.34;5010955;28;20109;-85
2023/10/22 11:03:03;;;;;;;0.10;0.10;;;;;;;28.85;43.01;100018.00;5011128;28;20033;-86
2023/10/22 11:05:39;;;;;;;0.10;0.10;;;;;;;28.47;43.90;99999.63;5011290;28;20057;-85
2023/10/22 11:08:22;;;;;;;0.10;0.10;;;;;;;28.52;44.37;100001.00;4993833;28;20061;-86
2023/10/22 11:10:48;;;;;;;0.20;0.20;;;;;;;27.48;46.47;99989.16;4993787;28;20655;-86
2023/10/22 11:13:14;;;;;;;0.13;0.13;;;;;;;28.02;45.86;100013.00;4993314;28;20406;-86
2023/10/22 11:15:40;;;;;;;0.17;0.17;;;;;;;27.31;48.01;100020.19;4993520;28;20129;-86
2023/10/22 11:18:10;;;;;;;0.10;0.10;;;;;;;26.19;51.35;100002.13;4993781;28;20045;-86
2023/10/22 11:20:37;;;;;;;0.20;0.20;;;;;;;25.67;54.61;100009.59;5009930;28;20497;-85
2023/10/22 11:23:02;;;;;;;0.20;0.20;;;;;;;24.54;56.07;99988.03;5009853;28;20030;-85
2023/10/22 11:25:29;;;;;;;0.20;0.20;;;;;;;23.16;67.39;100002.88;4999197;28;20022;-86
2023/10/22 11:27:55;;;;;;;0.20;0.20;;;;;;;22.16;80.31;100003.78;5012223;28;20027;-87
2023/10/22 11:30:34;;;;;;;0.20;0.20;;;;;;;22.63;86.83;100037.25;4998152;28;20017;-88
2023/10/22 11:33:00;;;;;;;0.20;0.20;;;;;;;22.49;88.96;100004.44;5030575;28;20489;-87
2023/10/22 11:35:30;;;;;;;0.10;0.10;;;;;;;22.60;92.70;100043.03;4992169;28;20053;-87
2023/10/22 11:37:57;;;;;;;0.20;0.20;;;;;;;22.33;93.84;100041.34;4990062;28;20061;-86
2023/10/22 11:40:29;;;;;;;0.20;0.20;;;;;;;22.17;95.30;100038.56;4995359;28;20076;-88
2023/10/22 11:42:59;;;;;;;0.20;0.20;;;;;;;21.68;93.94;100027.25;4993298;28;20056;-88
2023/10/22 11:45:29;;;;;;;0.20;0.20;;;;;;;21.80;94.45;100026.53;4992470;28;20289;-87
2023/10/22 11:48:11;;;;;;;0.20;0.20;;;;;;;22.11;97.71;100040.34;4992988;28;20025;-87
2023/10/22 11:50:37;;;;;;;0.20;0.20;;;;;;;22.37;96.91;100024.22;4991506;28;20072;-86
2023/10/22 11:53:02;;;;;;;0.20;0.20;;;;;;;22.17;97.71;100015.91;5013552;28;20026;-87
2023/10/22 11:55:28;;;;;;;0.20;0.20;;;;;;;22.44;97.88;100036.19;4995285;28;20103;-87
2023/10/22 11:57:53;;;;;;;0.20;0.20;;;;;;;22.39;97.19;100014.06;4996311;28;20030;-86
2023/10/22 12:00:18;;;;;;;0.20;0.20;;;;;;;22.54;97.40;100017.28;4995530;28;20044;-87
2023/10/22 12:02:44;;;;;;;0.20;0.20;;;;;;;22.87;95.42;100023.59;4994977;28;20112;-86
2023/10/22 12:05:11;;;;;;;0.20;0.20;;;;;;;23.14;93.45;100019.56;5012928;28;20161;-86
2023/10/22 12:07:36;;;;;;;0.20;0.20;;;;;;;23.55;90.48;100026.41;5011822;28;20021;-85
2023/10/22 12:10:02;;;;;;;0.20;0.20;;;;;;;23.91;84.96;100026.78;4995118;28;20040;-87
2023/10/22 12:12:28;;;;;;;0.10;0.10;;;;;;;24.15;81.05;100043.44;4994756;28;20172;-86
2023/10/22 12:14:53;;;;;;;0.17;0.17;;;;;;;24.10;81.67;100035.50;5012199;28;20105;-85
2023/10/22 12:17:19;;;;;;;0.20;0.20;;;;;;;24.30;79.92;100030.31;5013055;28;20648;-86
2023/10/22 12:19:44;;;;;;;0.10;0.10;;;;;;;24.42;79.86;100032.34;4995705;28;20025;-87
2023/10/22 12:22:09;;;;;;;0.20;0.20;;;;;;;24.31;79.47;100024.16;4995705;28;20564;-85
2023/10/22 12:24:35;;;;;;;0.20;0.20;;;;;;;24.56;74.46;100020.47;4995073;28;20101;-86